createdAt,value
2017-10-15T00:02:36.270Z,9.47
2017-10-15T00:17:35.194Z,10.20
2017-10-15T00:32:35.637Z,10.37
2017-10-15T00:47:35.688Z,11.63
2017-10-15T01:02:35.170Z,10.57
2017-10-15T01:17:35.098Z,10.90
2017-10-15T01:32:35.598Z,11.33
2017-10-15T01:47:35.972Z,10.37
2017-10-15T02:02:36.341Z,11.47
2017-10-15T02:17:36.994Z,11.47
2017-10-15T02:32:34.952Z,11.73
2017-10-15T02:47:34.469Z,11.73
2017-10-15T03:02:36.921Z,12.53
2017-10-15T03:17:34.993Z,11.20
2017-10-15T03:32:34.936Z,11.80
2017-10-15T03:47:34.406Z,11.90
2017-10-15T04:02:34.857Z,11.73
2017-10-15T04:17:36.570Z,12.40
2017-10-15T04:32:36.426Z,11.97
2017-10-15T04:47:36.361Z,12.33
2017-10-15T05:02:36.319Z,14.33
2017-10-15T05:17:35.833Z,12.20
2017-10-15T05:32:34.798Z,12.47
2017-10-15T05:47:36.845Z,17.97
2017-10-15T06:02:34.751Z,17.70
2017-10-15T06:17:38.142Z,20.63
2017-10-15T06:32:40.266Z,19.10
2017-10-15T06:47:36.192Z,20.80
2017-10-15T07:02:36.051Z,17.03
2017-10-15T07:17:36.519Z,15.67
2017-10-15T07:47:35.150Z,8.77
2017-10-15T08:02:38.158Z,8.27
2017-10-15T08:17:37.493Z,9.23
2017-10-15T08:32:34.907Z,8.70
2017-10-15T08:47:34.731Z,7.57
2017-10-15T09:02:34.615Z,7.40
2017-10-15T09:17:39.074Z,7.73
2017-10-15T09:32:34.932Z,7.63
2017-10-15T09:47:34.866Z,7.57
2017-10-15T10:02:34.847Z,7.77
2017-10-15T10:17:34.832Z,7.60
2017-10-15T10:32:34.800Z,7.23
2017-10-15T10:47:36.142Z,6.97
2017-10-15T11:02:35.086Z,6.77
2017-10-15T11:17:35.111Z,7.53
2017-10-15T11:32:34.975Z,7.40
2017-10-15T11:47:34.428Z,6.87
2017-10-15T12:02:36.403Z,6.33
2017-10-15T12:17:35.331Z,6.43
2017-10-15T12:32:36.270Z,5.87
2017-10-15T12:47:34.715Z,5.40
2017-10-15T13:02:34.670Z,7.33
2017-10-15T13:17:34.609Z,5.80
2017-10-15T13:32:34.619Z,5.53
2017-10-15T13:47:35.074Z,8.03
2017-10-15T14:02:34.942Z,7.67
2017-10-15T14:17:34.898Z,6.60
2017-10-15T14:32:34.859Z,6.00
2017-10-15T14:47:36.352Z,5.97
2017-10-15T15:02:36.281Z,7.87
2017-10-15T15:17:36.184Z,8.67
2017-10-15T15:32:33.718Z,9.47
2017-10-15T15:47:36.682Z,9.90
2017-10-15T16:02:35.562Z,9.97
2017-10-15T16:17:34.599Z,9.07
2017-10-15T16:32:34.483Z,10.37
2017-10-15T16:47:34.531Z,11.50
2017-10-15T17:02:34.871Z,14.90
2017-10-15T17:17:34.837Z,9.53
2017-10-15T17:32:34.836Z,9.93
2017-10-15T18:02:36.272Z,10.27
2017-10-15T18:17:49.054Z,9.27
2017-10-15T18:32:35.888Z,10.80
2017-10-15T18:47:39.429Z,9.50
2017-10-15T19:02:35.519Z,9.00
2017-10-15T19:17:35.837Z,7.43
2017-10-15T19:32:34.491Z,7.73
2017-10-15T19:47:35.062Z,7.67
2017-10-15T20:02:35.929Z,6.20
2017-10-15T20:17:34.864Z,8.33
2017-10-15T20:32:37.840Z,6.87
2017-10-15T20:47:36.191Z,6.80
2017-10-15T21:02:33.930Z,8.80
2017-10-15T21:17:35.143Z,5.90
2017-10-15T21:32:37.107Z,7.80
2017-10-15T21:47:36.056Z,7.60
2017-10-15T22:02:34.479Z,5.57
2017-10-15T22:17:37.724Z,4.93
2017-10-15T22:32:37.654Z,6.37
2017-10-15T22:47:34.857Z,6.63
2017-10-15T23:02:38.038Z,6.27
2017-10-15T23:17:34.817Z,6.03
2017-10-15T23:32:36.844Z,5.60
2017-10-15T23:47:35.475Z,5.10
